createdAt,value
2019-04-27T00:01:45.273Z,4.63
2019-04-27T00:06:51.861Z,3.50
2019-04-27T00:11:59.491Z,5.12
2019-04-27T00:17:07.083Z,4.63
2019-04-27T00:22:14.773Z,3.95
2019-04-27T00:27:23.460Z,4.40
2019-04-27T00:32:29.649Z,6.89
2019-04-27T00:37:37.236Z,4.24
2019-04-27T00:42:44.844Z,4.31
2019-04-27T00:47:59.065Z,5.04
2019-04-27T00:53:00.061Z,5.46
2019-04-27T00:58:07.648Z,5.39
2019-04-27T01:03:15.254Z,5.41
2019-04-27T01:08:23.021Z,5.47
2019-04-27T01:13:30.453Z,5.21
2019-04-27T01:18:38.751Z,5.76
2019-04-27T01:23:45.455Z,6.31
2019-04-27T01:28:53.280Z,7.26
2019-04-27T01:34:00.881Z,6.63
2019-04-27T01:39:08.529Z,6.24
2019-04-27T01:44:16.112Z,7.21
2019-04-27T01:49:23.721Z,8.18
2019-04-27T01:54:31.368Z,7.13
2019-04-27T01:59:38.974Z,8.17
2019-04-27T02:04:46.584Z,6.94
2019-04-27T02:09:54.198Z,6.49
2019-04-27T02:15:01.922Z,7.44
2019-04-27T02:20:09.781Z,7.51
2019-04-27T02:25:18.974Z,5.86
2019-04-27T02:30:24.787Z,8.22
2019-04-27T02:35:32.379Z,7.25
2019-04-27T02:40:42.622Z,8.55
2019-04-27T02:45:47.148Z,7.48
2019-04-27T02:50:54.778Z,8.54
2019-04-27T02:56:02.377Z,7.26
2019-04-27T03:01:10.088Z,7.33
2019-04-27T03:06:19.769Z,8.78
2019-04-27T03:11:24.966Z,9.14
2019-04-27T03:16:32.581Z,8.20
2019-04-27T03:21:40.241Z,10.05
2019-04-27T03:26:50.061Z,10.65
2019-04-27T03:31:55.051Z,9.96
2019-04-27T03:37:02.668Z,10.04
2019-04-27T03:42:10.576Z,10.57
2019-04-27T03:47:19.725Z,11.05
2019-04-27T03:52:25.453Z,10.80
2019-04-27T03:57:33.071Z,10.55
2019-04-27T04:02:40.736Z,10.89
2019-04-27T04:07:50.361Z,11.81
2019-04-27T04:12:56.423Z,10.91
2019-04-27T04:18:03.449Z,11.71
2019-04-27T04:23:11.034Z,12.02
2019-04-27T04:28:20.029Z,11.38
2019-04-27T04:33:25.994Z,10.04
2019-04-27T04:38:36.413Z,12.61
2019-04-27T04:43:34.009Z,10.47
2019-04-27T04:48:41.624Z,12.32
2019-04-27T04:53:51.740Z,11.48
2019-04-27T04:58:56.361Z,9.80
2019-04-27T05:04:04.031Z,11.33
2019-04-27T05:09:11.592Z,10.32
2019-04-27T05:14:19.983Z,11.09
2019-04-27T05:19:26.336Z,7.75
2019-04-27T05:24:33.972Z,9.31
2019-04-27T05:29:41.565Z,9.27
2019-04-27T05:34:49.566Z,9.75
2019-04-27T05:39:56.340Z,9.31
2019-04-27T05:45:03.929Z,10.86
2019-04-27T05:50:13.399Z,11.13
2019-04-27T05:55:19.250Z,14.15
2019-04-27T06:00:26.561Z,11.83
2019-04-27T06:05:34.148Z,12.79
2019-04-27T06:10:43.435Z,11.72
2019-04-27T06:15:51.041Z,13.96
2019-04-27T06:21:13.711Z,12.99
2019-04-27T06:26:01.765Z,11.87
2019-04-27T06:31:08.772Z,13.77
2019-04-27T06:36:14.770Z,13.68
2019-04-27T06:41:22.362Z,15.12
2019-04-27T06:46:30.004Z,16.60
2019-04-27T06:51:37.742Z,16.81
2019-04-27T06:56:45.408Z,14.98
2019-04-27T07:01:53.123Z,17.79
2019-04-27T07:07:01.733Z,19.96
2019-04-27T07:12:19.032Z,19.64
2019-04-27T07:17:14.713Z,23.33
2019-04-27T07:22:22.413Z,12.78
2019-04-27T07:27:45.211Z,12.71
2019-04-27T07:32:32.176Z,12.91
2019-04-27T07:37:39.832Z,13.94
